createdAt,value
2019-03-24T00:00:38.240Z,20.50
2019-03-24T00:03:07.779Z,22.73
2019-03-24T00:05:37.594Z,18.65
2019-03-24T00:08:07.228Z,17.87
2019-03-24T00:10:37.175Z,24.82
2019-03-24T00:13:06.898Z,23.77
2019-03-24T00:15:36.855Z,20.65
2019-03-24T00:18:06.732Z,19.52
2019-03-24T00:20:36.294Z,17.80
2019-03-24T00:23:05.851Z,22.35
2019-03-24T00:25:35.379Z,22.60
2019-03-24T00:28:05.143Z,18.77
2019-03-24T00:30:34.753Z,24.85
2019-03-24T00:33:04.654Z,31.42
2019-03-24T00:35:34.226Z,26.33
2019-03-24T00:38:04.229Z,23.27
2019-03-24T00:40:34.096Z,22.93
2019-03-24T00:43:04.231Z,25.55
2019-03-24T00:45:37.074Z,20.68
2019-03-24T00:48:05.603Z,23.35
2019-03-24T00:50:35.362Z,23.47
2019-03-24T00:53:04.929Z,20.62
2019-03-24T00:55:35.377Z,27.50
2019-03-24T00:58:05.382Z,33.18
2019-03-24T01:00:49.781Z,23.42
2019-03-24T01:03:19.374Z,30.75
2019-03-24T01:05:50.614Z,27.50
2019-03-24T01:08:20.060Z,21.82
2019-03-24T01:10:49.614Z,28.10
2019-03-24T01:13:19.409Z,29.67
2019-03-24T01:15:48.926Z,23.55
2019-03-24T01:18:18.425Z,29.77
2019-03-24T01:20:48.610Z,26.33
2019-03-24T01:23:18.608Z,22.35
2019-03-24T01:25:48.173Z,22.42
2019-03-24T01:28:17.675Z,30.97
2019-03-24T01:30:47.279Z,25.00
2019-03-24T01:33:17.010Z,25.88
2019-03-24T01:35:46.943Z,28.77
2019-03-24T01:38:16.613Z,31.02
2019-03-24T01:40:46.293Z,31.02
2019-03-24T01:43:15.816Z,23.52
2019-03-24T01:45:45.782Z,25.32
2019-03-24T01:48:15.402Z,18.35
2019-03-24T01:50:44.979Z,30.48
2019-03-24T01:53:14.341Z,26.35
2019-03-24T01:55:44.358Z,30.52
2019-03-24T01:58:13.810Z,28.35
2019-03-24T02:00:43.310Z,29.18
2019-03-24T02:03:12.755Z,29.42
2019-03-24T02:05:42.415Z,33.78
2019-03-24T02:08:11.915Z,33.00
2019-03-24T02:10:41.355Z,25.75
2019-03-24T02:13:11.101Z,34.25
2019-03-24T02:15:40.919Z,27.40
2019-03-24T02:18:10.762Z,30.02
2019-03-24T02:20:40.410Z,23.73
2019-03-24T02:23:09.844Z,21.05
2019-03-24T02:25:39.275Z,31.45
2019-03-24T02:28:08.958Z,24.95
2019-03-24T02:30:38.490Z,23.32
2019-03-24T02:33:08.101Z,30.60
2019-03-24T02:35:37.650Z,26.40
2019-03-24T02:38:07.184Z,33.92
2019-03-24T02:40:36.644Z,28.98
2019-03-24T02:43:06.152Z,24.75
2019-03-24T02:45:35.689Z,26.85
2019-03-24T02:48:05.530Z,33.55
2019-03-24T02:50:35.260Z,28.67
2019-03-24T02:53:04.999Z,20.90
2019-03-24T02:55:34.925Z,29.23
2019-03-24T02:58:04.686Z,24.70
2019-03-24T03:00:35.733Z,31.82
2019-03-24T03:03:05.258Z,28.90
2019-03-24T03:05:34.691Z,23.98
2019-03-24T03:08:04.813Z,25.23
2019-03-24T03:10:34.415Z,25.90
2019-03-24T03:13:04.015Z,33.18
2019-03-24T03:15:33.561Z,31.33
2019-03-24T03:18:03.147Z,27.50
2019-03-24T03:20:32.719Z,25.10
2019-03-24T03:23:02.362Z,31.20
2019-03-24T03:25:32.207Z,31.33
2019-03-24T03:28:02.381Z,25.62
2019-03-24T03:30:32.061Z,30.43
2019-03-24T03:33:01.512Z,28.77
2019-03-24T03:35:30.971Z,33.63
2019-03-24T03:38:00.773Z,30.95
2019-03-24T03:40:30.680Z,33.28
2019-03-24T03:43:00.413Z,28.32
2019-03-24T03:45:30.191Z,31.62
2019-03-24T03:48:00.227Z,28.67
2019-03-24T03:50:29.945Z,28.38
2019-03-24T03:52:59.311Z,30.45
2019-03-24T03:55:28.751Z,34.63
2019-03-24T03:57:58.200Z,23.22
2019-03-24T04:00:37.753Z,29.40
2019-03-24T04:03:08.714Z,31.15
2019-03-24T04:05:39.443Z,37.63
2019-03-24T04:08:08.952Z,28.75
2019-03-24T04:10:38.960Z,36.83
2019-03-24T04:13:08.393Z,35.23
2019-03-24T04:15:38.107Z,30.97
2019-03-24T04:18:07.769Z,36.30
2019-03-24T04:20:37.209Z,42.83
2019-03-24T04:23:06.725Z,42.38
2019-03-24T04:25:36.257Z,36.13
2019-03-24T04:28:05.956Z,32.55
2019-03-24T04:30:35.383Z,33.10
2019-03-24T04:33:04.881Z,29.45
2019-03-24T04:35:34.724Z,32.38
2019-03-24T04:38:04.927Z,33.83
2019-03-24T04:40:34.797Z,34.33
2019-03-24T04:43:04.758Z,32.93
2019-03-24T04:45:34.361Z,34.35
2019-03-24T04:48:03.804Z,33.33
2019-03-24T04:50:33.157Z,26.77
2019-03-24T04:53:02.908Z,28.70
2019-03-24T04:55:32.445Z,36.70
2019-03-24T04:58:01.874Z,33.73
2019-03-24T05:00:37.856Z,29.50
2019-03-24T05:05:37.386Z,37.65
2019-03-24T05:08:07.160Z,27.70
2019-03-24T05:10:36.988Z,36.10
2019-03-24T05:13:06.639Z,22.00
2019-03-24T05:15:36.166Z,26.02
2019-03-24T05:18:05.918Z,28.20
2019-03-24T05:20:35.369Z,30.85
2019-03-24T05:23:05.813Z,24.15
2019-03-24T05:25:35.355Z,24.23
2019-03-24T05:28:05.151Z,27.75
2019-03-24T05:30:35.755Z,28.70
2019-03-24T05:33:05.513Z,35.52
2019-03-24T05:35:35.044Z,20.15
2019-03-24T05:38:04.824Z,26.25
2019-03-24T05:40:34.362Z,31.68
2019-03-24T05:43:03.984Z,27.13
2019-03-24T05:45:33.423Z,32.95
2019-03-24T05:48:03.157Z,34.65
2019-03-24T05:50:32.913Z,35.00
2019-03-24T05:53:02.350Z,40.50
2019-03-24T05:55:32.100Z,29.80
2019-03-24T05:58:01.803Z,27.65
2019-03-24T06:00:31.341Z,24.92
2019-03-24T06:03:01.096Z,18.67
2019-03-24T06:05:30.726Z,33.48
2019-03-24T06:08:00.696Z,30.25
2019-03-24T06:10:30.124Z,27.75
2019-03-24T06:13:00.293Z,28.65
2019-03-24T06:15:29.719Z,30.48
2019-03-24T06:17:59.238Z,28.60
2019-03-24T06:20:28.698Z,27.15
2019-03-24T06:22:59.835Z,37.00
2019-03-24T06:25:29.674Z,36.45
2019-03-24T06:27:59.507Z,35.90
2019-03-24T06:30:29.076Z,34.70
2019-03-24T06:32:59.199Z,32.23
2019-03-24T06:35:28.763Z,32.23
2019-03-24T06:37:58.205Z,32.28
2019-03-24T06:40:27.826Z,38.78
2019-03-24T06:42:57.597Z,38.88
2019-03-24T08:19:15.630Z,24.98
2019-03-24T08:21:45.474Z,30.80
2019-03-24T08:24:15.243Z,34.50
2019-03-24T08:26:44.862Z,22.00
2019-03-24T08:29:14.603Z,26.68
2019-03-24T08:31:44.061Z,33.98
2019-03-24T08:34:13.799Z,25.45
2019-03-24T08:36:44.043Z,27.77
2019-03-24T08:39:13.533Z,25.95
2019-03-24T08:41:43.235Z,26.48
2019-03-24T08:44:12.819Z,30.90
2019-03-24T08:46:45.125Z,23.85
2019-03-24T08:49:14.392Z,20.35
2019-03-24T08:51:44.033Z,28.75
2019-03-24T08:54:13.923Z,27.45
2019-03-24T08:56:43.491Z,28.70
2019-03-24T08:59:13.036Z,29.02
2019-03-24T09:01:42.704Z,30.45
2019-03-24T09:04:12.745Z,27.05
2019-03-24T09:06:42.560Z,24.60
2019-03-24T09:09:14.925Z,21.95
2019-03-24T09:11:44.451Z,23.98
2019-03-24T09:14:14.517Z,30.37
2019-03-24T09:16:44.201Z,31.45
2019-03-24T09:19:13.761Z,27.95
2019-03-24T09:21:43.397Z,29.07
2019-03-24T09:24:13.406Z,29.82
2019-03-24T09:26:42.940Z,24.87
2019-03-24T09:29:12.566Z,20.88
2019-03-24T09:31:42.219Z,19.45
2019-03-24T09:34:12.385Z,23.12
2019-03-24T09:36:43.092Z,15.72
2019-03-24T09:39:12.558Z,22.05
2019-03-24T09:41:42.101Z,20.90
2019-03-24T09:44:11.861Z,16.17
2019-03-24T09:46:41.572Z,23.70
2019-03-24T09:49:11.210Z,18.15
2019-03-24T09:51:40.769Z,18.67
2019-03-24T09:54:10.138Z,19.92
2019-03-24T09:56:39.952Z,18.17
2019-03-24T09:59:09.814Z,25.48
2019-03-24T10:01:39.765Z,55.10
2019-03-24T10:04:09.520Z,28.00
2019-03-24T10:06:39.995Z,18.45
2019-03-24T10:09:09.436Z,16.82
2019-03-24T10:11:39.194Z,15.43
2019-03-24T10:14:08.640Z,15.03
2019-03-24T10:16:38.288Z,12.98
2019-03-24T10:19:13.912Z,13.15
2019-03-24T10:21:39.068Z,17.15
2019-03-24T10:24:08.984Z,8.68
2019-03-24T10:26:38.732Z,11.80
2019-03-24T10:29:08.136Z,19.42
2019-03-24T10:31:37.580Z,13.80
2019-03-24T10:34:07.129Z,16.50
2019-03-24T10:36:36.665Z,12.85
2019-03-24T10:39:06.490Z,12.40
2019-03-24T10:41:37.049Z,18.52
2019-03-24T10:44:06.484Z,12.70
2019-03-24T10:46:35.938Z,15.15
2019-03-24T10:49:06.038Z,12.40
2019-03-24T10:51:35.627Z,15.30
2019-03-24T10:54:05.284Z,7.70
2019-03-24T10:56:34.993Z,8.40
2019-03-24T10:59:04.498Z,12.47
2019-03-24T11:01:35.471Z,18.25
2019-03-24T11:04:05.000Z,16.20
2019-03-24T11:06:34.442Z,14.50
2019-03-24T11:09:04.971Z,16.90
2019-03-24T11:11:34.475Z,12.15
2019-03-24T11:14:03.860Z,17.70
2019-03-24T11:16:33.577Z,16.15
2019-03-24T11:19:03.457Z,30.20
2019-03-24T11:21:33.340Z,26.87
2019-03-24T11:24:03.204Z,21.68
2019-03-24T11:26:32.672Z,30.92
2019-03-24T11:29:02.229Z,34.27
2019-03-24T11:31:31.709Z,44.03
2019-03-24T11:34:01.503Z,42.67
2019-03-24T11:36:31.016Z,75.35
2019-03-24T11:39:00.656Z,22.02
2019-03-24T11:41:30.587Z,21.60
2019-03-24T11:44:00.259Z,26.82
2019-03-24T11:46:29.724Z,30.85
2019-03-24T11:48:59.265Z,18.07
2019-03-24T11:51:28.777Z,18.42
2019-03-24T11:53:59.581Z,20.10
2019-03-24T11:56:29.356Z,40.10
2019-03-24T11:59:00.162Z,27.55
2019-03-24T12:01:37.993Z,19.50
2019-03-24T12:04:01.025Z,21.62
2019-03-24T12:06:30.680Z,20.55
2019-03-24T12:09:00.327Z,7.75
2019-03-24T12:11:30.118Z,13.72
2019-03-24T12:13:59.872Z,14.35
2019-03-24T12:16:30.178Z,15.23
2019-03-24T12:18:59.888Z,13.93
2019-03-24T12:21:29.817Z,19.15
2019-03-24T12:23:59.559Z,15.43
2019-03-24T12:26:29.077Z,15.30
2019-03-24T12:28:58.787Z,17.57
2019-03-24T12:31:28.556Z,19.62
2019-03-24T12:33:58.063Z,14.15
2019-03-24T12:36:27.589Z,19.17
2019-03-24T12:38:57.424Z,12.25
2019-03-24T12:41:26.962Z,14.58
2019-03-24T12:43:56.534Z,11.85
2019-03-24T12:46:25.979Z,15.13
2019-03-24T12:48:55.516Z,12.47
2019-03-24T12:51:25.180Z,15.83
2019-03-24T12:53:55.059Z,10.30
2019-03-24T12:56:24.788Z,15.48
2019-03-24T12:58:54.499Z,14.18
2019-03-24T13:01:23.861Z,17.48
2019-03-24T13:03:53.587Z,12.23
2019-03-24T13:06:24.228Z,13.10
2019-03-24T13:08:53.765Z,12.98
2019-03-24T13:11:23.502Z,15.00
2019-03-24T13:13:53.232Z,12.37
2019-03-24T13:16:23.044Z,13.25
2019-03-24T13:18:52.954Z,14.75
2019-03-24T13:21:22.329Z,16.23
2019-03-24T13:23:51.782Z,13.28
2019-03-24T13:26:21.241Z,14.87
2019-03-24T13:28:50.871Z,12.65
2019-03-24T13:31:21.180Z,16.40
2019-03-24T13:33:51.310Z,12.47
2019-03-24T13:36:21.086Z,17.82
2019-03-24T13:38:50.540Z,14.87
2019-03-24T13:41:20.633Z,9.83
2019-03-24T13:43:50.274Z,8.88
2019-03-24T13:46:19.701Z,12.28
2019-03-24T13:48:49.363Z,13.45
2019-03-24T13:51:19.060Z,11.73
2019-03-24T13:53:48.983Z,11.45
2019-03-24T13:56:21.659Z,12.65
2019-03-24T13:58:51.104Z,18.85
2019-03-24T14:01:20.898Z,17.42
2019-03-24T14:03:50.689Z,14.23
2019-03-24T14:06:20.339Z,12.82
2019-03-24T14:08:50.167Z,10.80
2019-03-24T14:11:19.958Z,12.33
2019-03-24T14:13:49.421Z,12.60
2019-03-24T14:16:19.219Z,12.07
2019-03-24T14:18:48.655Z,11.00
2019-03-24T14:21:18.412Z,12.80
2019-03-24T14:23:48.117Z,15.72
2019-03-24T14:26:17.806Z,15.93
2019-03-24T14:28:47.367Z,15.70
2019-03-24T14:31:17.032Z,11.33
2019-03-24T14:33:47.896Z,15.05
2019-03-24T14:36:17.435Z,13.30
2019-03-24T14:38:46.979Z,12.00
2019-03-24T14:41:17.512Z,10.78
2019-03-24T14:43:47.151Z,11.75
2019-03-24T14:46:16.922Z,12.25
2019-03-24T14:48:46.825Z,12.73
2019-03-24T14:51:16.661Z,12.93
2019-03-24T14:53:46.220Z,9.10
2019-03-24T14:56:15.818Z,13.05
2019-03-24T14:58:45.287Z,10.90
2019-03-24T15:01:14.934Z,11.97
2019-03-24T15:03:45.472Z,11.43
2019-03-24T15:06:15.219Z,9.33
2019-03-24T15:08:44.657Z,16.12
2019-03-24T15:11:14.039Z,10.38
2019-03-24T15:13:43.732Z,11.28
2019-03-24T15:16:13.177Z,11.05
2019-03-24T15:18:42.570Z,10.80
2019-03-24T15:21:12.223Z,13.25
2019-03-24T15:23:41.622Z,11.75
2019-03-24T15:26:11.260Z,10.80
2019-03-24T15:28:40.915Z,10.40
2019-03-24T15:31:10.856Z,11.68
2019-03-24T15:33:40.505Z,8.53
2019-03-24T15:36:09.962Z,18.42
2019-03-24T15:38:39.404Z,12.07
2019-03-24T15:41:10.054Z,15.35
2019-03-24T15:43:41.206Z,11.65
2019-03-24T15:46:11.136Z,14.03
2019-03-24T15:48:41.590Z,12.23
2019-03-24T15:51:16.879Z,11.93
2019-03-24T15:53:42.297Z,27.95
2019-03-24T15:56:12.232Z,14.87
2019-03-24T15:58:42.320Z,11.20
2019-03-24T16:01:11.865Z,15.35
2019-03-24T16:03:41.515Z,9.35
2019-03-24T16:06:11.459Z,9.85
2019-03-24T16:08:41.281Z,12.58
2019-03-24T16:11:11.128Z,11.97
2019-03-24T16:13:40.582Z,9.03
2019-03-24T16:16:10.131Z,12.45
2019-03-24T16:18:39.568Z,10.58
2019-03-24T16:21:09.043Z,11.65
2019-03-24T16:23:38.789Z,12.90
2019-03-24T16:26:08.779Z,10.70
2019-03-24T16:28:38.768Z,9.23
2019-03-24T16:31:08.590Z,10.58
2019-03-24T16:33:38.282Z,15.63
2019-03-24T16:36:07.719Z,18.82
2019-03-24T16:38:37.107Z,18.77
2019-03-24T16:41:06.981Z,26.75
2019-03-24T16:43:36.422Z,33.23
2019-03-24T16:46:06.251Z,34.48
2019-03-24T16:48:37.045Z,30.08
2019-03-24T16:51:06.904Z,14.10
2019-03-24T16:53:36.372Z,54.88
2019-03-24T16:56:05.918Z,27.10
2019-03-24T16:58:35.356Z,39.23
2019-03-24T17:01:05.198Z,22.48
2019-03-24T17:03:34.752Z,17.65
2019-03-24T17:06:04.791Z,26.02
2019-03-24T17:08:34.346Z,39.98
2019-03-24T17:11:03.960Z,18.05
2019-03-24T17:13:33.841Z,35.13
2019-03-24T17:16:03.561Z,27.98
2019-03-24T17:18:33.277Z,53.70
2019-03-24T17:21:03.081Z,36.93
2019-03-24T17:23:33.024Z,28.55
2019-03-24T17:26:02.998Z,17.35
2019-03-24T17:28:32.599Z,17.80
2019-03-24T17:31:02.079Z,18.15
2019-03-24T17:33:31.630Z,21.37
2019-03-24T17:36:01.406Z,16.97
2019-03-24T17:38:30.942Z,17.02
2019-03-24T17:41:00.846Z,15.75
2019-03-24T17:43:32.032Z,12.58
2019-03-24T17:46:01.659Z,12.68
2019-03-24T17:48:31.551Z,11.83
2019-03-24T17:51:01.069Z,16.67
2019-03-24T17:53:30.498Z,10.25
2019-03-24T17:56:00.479Z,17.85
2019-03-24T17:58:29.984Z,18.67
2019-03-24T18:01:00.702Z,14.18
2019-03-24T18:03:30.441Z,12.23
2019-03-24T18:05:59.809Z,16.77
2019-03-24T18:08:29.182Z,9.50
2019-03-24T18:10:58.940Z,11.20
2019-03-24T18:13:28.299Z,11.83
2019-03-24T18:15:57.950Z,13.50
2019-03-24T18:18:27.599Z,10.45
2019-03-24T18:20:57.353Z,11.75
2019-03-24T18:23:27.237Z,8.03
2019-03-24T18:25:56.686Z,12.15
2019-03-24T18:28:26.131Z,10.28
2019-03-24T18:30:55.564Z,8.90
2019-03-24T18:33:25.030Z,11.88
2019-03-24T18:35:54.763Z,10.08
2019-03-24T18:38:24.379Z,13.13
2019-03-24T18:40:55.375Z,15.48
2019-03-24T18:43:24.920Z,10.48
2019-03-24T18:45:54.619Z,10.70
2019-03-24T18:48:24.562Z,14.20
2019-03-24T18:50:54.185Z,16.62
2019-03-24T18:53:24.119Z,11.10
2019-03-24T18:56:13.455Z,12.65
2019-03-24T18:58:42.992Z,10.93
2019-03-24T19:01:12.549Z,12.13
2019-03-24T19:03:42.346Z,12.65
2019-03-24T19:06:12.407Z,14.28
2019-03-24T19:08:42.050Z,13.70
2019-03-24T19:11:11.786Z,22.27
2019-03-24T19:13:41.245Z,14.93
2019-03-24T19:16:10.683Z,11.53
2019-03-24T19:18:40.515Z,11.28
2019-03-24T19:21:10.011Z,14.85
2019-03-24T19:23:39.495Z,12.00
2019-03-24T19:26:09.244Z,12.75
2019-03-24T19:28:39.327Z,10.63
2019-03-24T19:31:09.634Z,12.58
2019-03-24T19:33:39.162Z,19.12
2019-03-24T19:36:08.821Z,11.78
2019-03-24T19:38:39.221Z,16.25
2019-03-24T19:41:08.686Z,11.18
2019-03-24T19:43:39.850Z,15.80
2019-03-24T19:46:09.706Z,13.90
2019-03-24T19:48:39.269Z,20.25
2019-03-24T19:51:08.902Z,12.85
2019-03-24T19:53:38.342Z,15.28
2019-03-24T19:56:08.506Z,15.10
2019-03-24T19:58:38.534Z,16.27
2019-03-24T20:01:08.186Z,16.12
2019-03-24T20:03:37.713Z,14.58
2019-03-24T20:06:07.394Z,13.05
2019-03-24T20:08:36.787Z,15.18
2019-03-24T20:11:06.218Z,20.75
2019-03-24T20:13:36.916Z,18.15
2019-03-24T20:16:06.475Z,14.68
2019-03-24T20:18:36.343Z,14.60
2019-03-24T20:21:07.115Z,18.20
2019-03-24T20:23:36.786Z,20.72
2019-03-24T20:26:06.315Z,18.30
2019-03-24T20:28:35.699Z,16.55
2019-03-24T20:31:05.196Z,18.82
2019-03-24T20:33:34.558Z,16.77
2019-03-24T20:36:04.390Z,20.75
2019-03-24T20:38:33.812Z,22.93
2019-03-24T20:41:03.403Z,18.67
2019-03-24T20:43:33.026Z,18.77
2019-03-24T20:46:02.463Z,16.57
2019-03-24T20:48:32.279Z,21.17
2019-03-24T20:51:01.933Z,22.77
2019-03-24T20:53:31.655Z,24.80
2019-03-24T20:56:01.543Z,25.68
2019-03-24T20:58:30.980Z,26.75
2019-03-24T21:01:00.364Z,29.32
2019-03-24T21:03:30.259Z,29.70
2019-03-24T21:05:59.717Z,26.45
2019-03-24T21:08:29.469Z,23.12
2019-03-24T21:10:59.208Z,19.25
2019-03-24T21:13:28.590Z,20.45
2019-03-24T21:15:58.224Z,21.95
2019-03-24T21:18:28.084Z,17.37
2019-03-24T21:20:57.812Z,22.73
2019-03-24T21:23:29.861Z,18.98
2019-03-24T21:25:59.089Z,23.77
2019-03-24T21:28:28.582Z,19.15
2019-03-24T21:30:58.159Z,18.80
2019-03-24T21:33:27.806Z,21.65
2019-03-24T21:35:57.508Z,19.57
2019-03-24T21:38:27.250Z,19.52
2019-03-24T21:40:56.904Z,21.35
2019-03-24T21:43:26.331Z,18.82
2019-03-24T21:45:55.709Z,18.67
2019-03-24T21:48:25.246Z,16.80
2019-03-24T21:50:54.987Z,12.23
2019-03-24T21:53:24.410Z,15.03
2019-03-24T21:55:54.143Z,12.47
2019-03-24T21:58:25.257Z,13.15
2019-03-24T22:00:55.037Z,16.20
2019-03-24T22:03:25.031Z,15.50
2019-03-24T22:05:54.488Z,16.17
2019-03-24T22:08:23.859Z,17.55
2019-03-24T22:10:53.553Z,14.10
2019-03-24T22:13:22.921Z,15.13
2019-03-24T22:15:52.747Z,16.42
2019-03-24T22:18:22.707Z,13.68
2019-03-24T22:20:52.136Z,13.43
2019-03-24T22:23:21.817Z,17.57
2019-03-24T22:25:53.139Z,15.63
2019-03-24T22:28:22.578Z,17.57
2019-03-24T22:30:52.074Z,13.95
2019-03-24T22:33:21.910Z,14.53
2019-03-24T22:35:52.142Z,13.25
2019-03-24T22:38:21.724Z,19.52
2019-03-24T22:40:51.216Z,18.10
2019-03-24T22:43:20.706Z,14.68
2019-03-24T22:45:50.159Z,19.70
2019-03-24T22:48:19.682Z,16.55
2019-03-24T22:50:49.234Z,21.12
2019-03-24T22:53:18.947Z,15.40
2019-03-24T22:55:51.012Z,15.48
2019-03-24T22:58:20.568Z,20.88
2019-03-24T23:00:52.794Z,18.60
2019-03-24T23:03:24.931Z,16.50
2019-03-24T23:05:53.836Z,17.62
2019-03-24T23:08:23.478Z,18.75
2019-03-24T23:10:52.947Z,21.93
2019-03-24T23:13:22.488Z,22.25
2019-03-24T23:15:52.211Z,17.67
2019-03-24T23:18:21.755Z,25.72
2019-03-24T23:20:51.378Z,22.07
2019-03-24T23:23:20.948Z,16.37
2019-03-24T23:25:50.458Z,17.35
2019-03-24T23:28:19.959Z,19.12
2019-03-24T23:30:49.576Z,15.83
2019-03-24T23:33:19.615Z,16.90
2019-03-24T23:35:49.107Z,23.07
2019-03-24T23:38:20.214Z,14.93
2019-03-24T23:40:49.923Z,17.32
2019-03-24T23:43:19.425Z,15.25
2019-03-24T23:45:49.161Z,15.40
2019-03-24T23:48:18.595Z,19.42
2019-03-24T23:50:49.708Z,17.50
2019-03-24T23:53:19.235Z,20.10
2019-03-24T23:55:48.779Z,20.03
2019-03-24T23:58:18.142Z,18.92
